Time;durP1;ratioP1;P1;durP2;ratioP2;P2;SDS_P1;SDS_P2;PMS_P1;PMS_P2;Temp;Humidity;BMP_temperature;BMP_pressure;BME280_temperature;BME280_humidity;BME280_pressure;Samples;Min_cycle;Max_cycle;Signal;HPM_P1;HPM_P2
2022/09/22 00:02:00;;;;;;;4.78;1.90;;;20.70;63.40;;;;;;5013946;28;20441;-60
2022/09/22 00:04:26;;;;;;;3.97;1.88;;;20.70;63.40;;;;;;5013309;28;20386;-61
2022/09/22 00:06:52;;;;;;;4.18;2.10;;;20.70;63.40;;;;;;5012707;28;20046;-60
2022/09/22 00:09:19;;;;;;;3.10;1.60;;;20.70;63.40;;;;;;5012811;28;20046;-60
2022/09/22 00:11:46;;;;;;;4.47;1.85;;;20.70;63.40;;;;;;5013691;28;20042;-61
2022/09/22 00:14:16;;;;;;;4.03;1.77;;;20.70;63.40;;;;;;5012334;28;20501;-60
2022/09/22 00:16:43;;;;;;;3.38;1.70;;;20.70;63.30;;;;;;5013395;28;20497;-60
2022/09/22 00:19:12;;;;;;;4.67;2.07;;;20.70;63.40;;;;;;5012996;28;20088;-61
2022/09/22 00:21:37;;;;;;;3.97;1.90;;;20.70;63.30;;;;;;5012837;28;20042;-60
2022/09/22 00:24:06;;;;;;;3.95;2.08;;;20.60;63.30;;;;;;5013322;28;20046;-61
2022/09/22 00:26:32;;;;;;;6.55;1.98;;;20.60;63.30;;;;;;5013162;28;20048;-61
2022/09/22 00:28:59;;;;;;;3.15;1.80;;;20.60;63.30;;;;;;5012478;28;20137;-61
2022/09/22 00:31:25;;;;;;;2.87;1.80;;;20.60;63.30;;;;;;4995170;28;20843;-60
2022/09/22 00:33:54;;;;;;;3.90;1.85;;;20.60;63.30;;;;;;5012879;28;20089;-60
2022/09/22 00:36:22;;;;;;;3.80;2.03;;;20.60;63.30;;;;;;5012057;28;20073;-61
2022/09/22 00:38:51;;;;;;;4.20;1.65;;;20.60;63.30;;;;;;5013194;28;20051;-61
2022/09/22 00:41:22;;;;;;;3.85;1.90;;;20.60;63.30;;;;;;5012547;28;20553;-61
2022/09/22 00:43:50;;;;;;;3.72;1.75;;;20.60;63.30;;;;;;5012747;28;20038;-61
2022/09/22 00:46:24;;;;;;;3.15;1.60;;;20.60;63.30;;;;;;5012438;28;20049;-61
2022/09/22 00:48:53;;;;;;;3.70;1.90;;;20.60;63.30;;;;;;5012190;28;20513;-61
2022/09/22 00:51:24;;;;;;;3.33;1.73;;;20.60;63.30;;;;;;5011395;28;20050;-61
2022/09/22 00:53:49;;;;;;;4.70;2.10;;;20.60;63.30;;;;;;4995526;28;20042;-61
2022/09/22 00:56:17;;;;;;;3.88;1.80;;;20.50;63.20;;;;;;5010666;28;20045;-61
2022/09/22 00:58:49;;;;;;;3.88;1.98;;;20.50;63.20;;;;;;5011280;28;20054;-61
2022/09/22 01:01:14;;;;;;;3.83;1.85;;;20.50;63.20;;;;;;5012549;28;20054;-61
2022/09/22 01:03:41;;;;;;;2.70;1.63;;;20.50;63.20;;;;;;5010827;28;20401;-61
2022/09/22 01:06:08;;;;;;;3.53;1.63;;;20.50;63.10;;;;;;5011497;28;20045;-61
2022/09/22 01:08:34;;;;;;;2.80;1.42;;;20.50;63.10;;;;;;4995177;28;20038;-61
2022/09/22 01:11:05;;;;;;;3.60;1.50;;;20.50;63.10;;;;;;5010761;28;20061;-62
2022/09/22 01:13:47;;;;;;;3.75;1.85;;;20.50;63.20;;;;;;5011257;28;20478;-61
2022/09/22 01:16:54;;;;;;;3.00;1.50;;;20.50;63.10;;;;;;5011413;28;20085;-61
2022/09/22 01:19:33;;;;;;;2.80;1.85;;;20.50;63.10;;;;;;4988543;28;20081;-61
2022/09/22 01:22:04;;;;;;;4.25;1.80;;;20.50;63.10;;;;;;5011535;28;20046;-61
2022/09/22 01:24:30;;;;;;;3.53;1.83;;;20.50;63.70;;;;;;5011421;28;20049;-61
2022/09/22 01:27:17;;;;;;;4.53;1.77;;;20.50;63.10;;;;;;5012234;28;20042;-62
2022/09/22 01:30:27;;;;;;;2.83;1.35;;;20.40;63.00;;;;;;5012666;28;20041;-61
2022/09/22 01:32:55;;;;;;;2.63;1.50;;;20.50;63.10;;;;;;4950667;29;20059;-61
2022/09/22 01:35:30;;;;;;;2.83;1.52;;;20.40;63.00;;;;;;4987089;28;20054;-61
2022/09/22 01:38:08;;;;;;;3.45;1.40;;;20.40;63.10;;;;;;5013057;28;20049;-61
2022/09/22 01:40:49;;;;;;;3.30;1.70;;;20.40;63.00;;;;;;5014571;28;20046;-61
2022/09/22 01:43:39;;;;;;;3.20;1.50;;;20.40;63.00;;;;;;5014641;28;20049;-61
2022/09/22 01:46:28;;;;;;;3.03;1.42;;;20.40;63.00;;;;;;5014634;28;20095;-61
2022/09/22 01:48:59;;;;;;;3.67;1.77;;;20.40;63.00;;;;;;5013780;28;20045;-61
2022/09/22 01:51:30;;;;;;;4.10;1.73;;;20.40;63.00;;;;;;5014669;28;20046;-61
2022/09/22 01:53:59;;;;;;;4.90;1.95;;;20.40;63.00;;;;;;4998147;28;20073;-61
2022/09/22 01:56:25;;;;;;;3.25;1.70;;;20.40;63.00;;;;;;5014507;28;20050;-62
2022/09/22 01:59:04;;;;;;;3.00;1.63;;;20.40;63.00;;;;;;5015118;28;20048;-62
2022/09/22 02:01:38;;;;;;;3.58;1.63;;;20.40;62.90;;;;;;4997265;28;20046;-62
2022/09/22 02:04:15;;;;;;;4.30;1.70;;;20.30;62.90;;;;;;5014071;28;20049;-62
2022/09/22 02:06:43;;;;;;;2.40;1.52;;;20.30;62.90;;;;;;4997301;28;20046;-61
2022/09/22 02:09:09;;;;;;;;;;;20.30;62.90;;;;;;5015853;28;20154;-61
2022/09/22 02:11:35;;;;;;;4.35;1.50;;;20.30;62.90;;;;;;5014407;28;20341;-62
2022/09/22 02:14:03;;;;;;;;;;;20.30;63.00;;;;;;4997811;28;20085;-61
2022/09/22 02:16:32;;;;;;;2.40;1.40;;;20.30;62.90;;;;;;5015628;28;19980;-62
2022/09/22 02:19:18;;;;;;;3.55;1.58;;;20.30;63.00;;;;;;5015476;28;20049;-62
2022/09/22 02:21:44;;;;;;;3.00;1.40;;;20.30;62.90;;;;;;5013556;28;20046;-60
2022/09/22 02:24:32;;;;;;;2.28;1.20;;;20.30;62.90;;;;;;5015379;28;20475;-60
2022/09/22 02:27:05;;;;;;;2.75;1.38;;;20.30;62.80;;;;;;5015742;28;20054;-62
2022/09/22 02:29:32;;;;;;;3.10;1.55;;;20.20;62.80;;;;;;5014942;28;20473;-61
2022/09/22 02:31:59;;;;;;;4.38;1.48;;;20.30;62.90;;;;;;5013884;28;20038;-62
2022/09/22 02:34:24;;;;;;;2.20;1.30;;;20.20;62.80;;;;;;5011975;28;20053;-59
2022/09/22 02:36:59;;;;;;;2.40;1.40;;;20.20;62.80;;;;;;5014270;28;20091;-62
2022/09/22 02:39:41;;;;;;;2.85;1.20;;;20.20;62.80;;;;;;5012937;28;20065;-61
2022/09/22 02:42:22;;;;;;;2.00;1.10;;;20.20;62.70;;;;;;5011825;28;20494;-61
2022/09/22 02:44:51;;;;;;;2.55;1.30;;;20.20;62.80;;;;;;5012781;28;20153;-60
2022/09/22 02:47:18;;;;;;;;;;;20.20;62.80;;;;;;5013009;28;20042;-61
2022/09/22 02:49:44;;;;;;;3.75;1.50;;;20.20;62.70;;;;;;5012872;28;19921;-61
2022/09/22 02:52:13;;;;;;;2.63;1.50;;;20.20;62.80;;;;;;5013869;28;20370;-60
2022/09/22 02:54:38;;;;;;;2.85;1.20;;;20.20;62.80;;;;;;5013000;28;20046;-61
2022/09/22 02:57:05;;;;;;;2.78;1.50;;;20.20;62.70;;;;;;5013255;28;20180;-61
2022/09/22 02:59:30;;;;;;;2.60;1.35;;;20.20;62.80;;;;;;5013762;28;20045;-61
2022/09/22 03:01:56;;;;;;;2.90;1.52;;;20.20;62.70;;;;;;5013532;28;20050;-60
2022/09/22 03:04:22;;;;;;;2.33;1.17;;;20.20;62.70;;;;;;5012575;28;20042;-61
2022/09/22 03:06:47;;;;;;;1.83;1.17;;;20.10;62.70;;;;;;5013728;28;20445;-60
2022/09/22 03:09:15;;;;;;;2.95;1.50;;;20.20;62.80;;;;;;5012940;28;20058;-61
2022/09/22 03:11:41;;;;;;;2.28;1.08;;;20.10;62.80;;;;;;5013145;28;20167;-61
2022/09/22 03:14:06;;;;;;;2.78;1.33;;;20.20;62.70;;;;;;5013367;28;20444;-61
2022/09/22 03:16:32;;;;;;;3.25;1.58;;;20.10;62.70;;;;;;5013002;28;20065;-61
2022/09/22 03:18:58;;;;;;;2.30;1.30;;;20.10;62.60;;;;;;5013486;28;20037;-61
2022/09/22 03:21:24;;;;;;;2.50;1.33;;;20.10;62.70;;;;;;5013280;28;20057;-61
2022/09/22 03:23:49;;;;;;;3.60;1.20;;;20.10;62.60;;;;;;5012728;28;20045;-61
2022/09/22 03:26:15;;;;;;;3.63;1.35;;;20.10;62.60;;;;;;5013135;28;20124;-61
2022/09/22 03:28:42;;;;;;;2.33;1.40;;;20.10;62.60;;;;;;5013490;28;20045;-61
2022/09/22 03:31:08;;;;;;;3.17;1.20;;;20.10;62.60;;;;;;5012170;28;20561;-61
2022/09/22 03:33:34;;;;;;;3.00;1.20;;;20.10;62.60;;;;;;4978006;28;1040752;-61
2022/09/22 03:36:00;;;;;;;2.90;1.27;;;20.10;62.60;;;;;;5014463;28;20080;-61
2022/09/22 03:38:25;;;;;;;3.08;1.45;;;20.10;62.60;;;;;;5013308;28;20548;-62
2022/09/22 03:40:51;;;;;;;2.05;1.13;;;20.10;62.60;;;;;;5014393;28;20042;-61
2022/09/22 03:43:17;;;;;;;2.35;1.40;;;20.10;62.60;;;;;;5013648;28;20481;-60
2022/09/22 03:45:43;;;;;;;2.88;1.10;;;20.10;62.60;;;;;;5013346;28;20053;-61
2022/09/22 03:48:09;;;;;;;2.65;1.30;;;20.00;62.50;;;;;;5013599;28;20520;-61
2022/09/22 03:50:34;;;;;;;2.00;1.05;;;20.10;62.60;;;;;;5014079;28;20046;-61
2022/09/22 03:53:00;;;;;;;3.08;1.30;;;20.10;62.50;;;;;;5013042;28;20508;-61
2022/09/22 03:55:28;;;;;;;3.10;1.20;;;20.00;62.50;;;;;;5013469;28;20112;-61
2022/09/22 03:57:54;;;;;;;1.90;1.30;;;20.00;62.50;;;;;;5014140;28;20042;-61
2022/09/22 04:00:19;;;;;;;2.17;1.27;;;20.00;62.50;;;;;;5011906;28;20115;-61
2022/09/22 04:02:45;;;;;;;2.78;1.48;;;20.00;62.50;;;;;;5012931;28;20061;-61
2022/09/22 04:05:11;;;;;;;2.53;1.13;;;20.00;62.50;;;;;;5012348;28;20141;-61
2022/09/22 04:07:36;;;;;;;3.20;1.30;;;20.00;62.50;;;;;;5012489;28;20037;-61
2022/09/22 04:10:02;;;;;;;1.98;1.10;;;20.00;62.50;;;;;;5013748;28;20061;-61
2022/09/22 04:12:28;;;;;;;2.40;1.33;;;20.00;62.40;;;;;;5013200;28;20132;-61
2022/09/22 04:14:53;;;;;;;2.97;1.15;;;20.00;62.40;;;;;;4995194;28;20034;-61
2022/09/22 04:17:19;;;;;;;2.20;1.00;;;20.00;62.40;;;;;;5013138;28;20386;-61
2022/09/22 04:19:46;;;;;;;2.95;1.30;;;20.00;62.40;;;;;;5012919;28;20042;-61
2022/09/22 04:22:11;;;;;;;2.65;1.30;;;20.00;62.40;;;;;;5012362;28;20046;-61
2022/09/22 04:24:37;;;;;;;1.67;1.17;;;20.00;62.40;;;;;;5013378;28;20042;-61
2022/09/22 04:27:02;;;;;;;2.60;1.38;;;20.00;62.40;;;;;;5012361;28;20050;-61
2022/09/22 04:29:28;;;;;;;2.15;1.10;;;19.90;62.30;;;;;;5012562;28;20042;-61
2022/09/22 04:31:53;;;;;;;1.92;1.15;;;20.00;62.40;;;;;;5012716;28;20112;-61
2022/09/22 04:34:19;;;;;;;2.65;1.20;;;19.90;62.30;;;;;;5012297;28;20045;-61
2022/09/22 04:36:48;;;;;;;3.25;1.27;;;19.90;62.30;;;;;;5012675;28;20414;-62
2022/09/22 04:39:14;;;;;;;1.73;0.93;;;19.90;62.30;;;;;;5012720;28;20054;-61
2022/09/22 04:41:39;;;;;;;2.55;1.30;;;19.90;62.30;;;;;;5012521;28;20056;-61
2022/09/22 04:44:05;;;;;;;1.73;1.10;;;19.90;62.30;;;;;;5012889;28;20518;-61
2022/09/22 04:46:30;;;;;;;2.53;1.20;;;19.90;62.30;;;;;;5013244;28;20326;-61
2022/09/22 04:48:56;;;;;;;2.72;1.27;;;19.90;62.30;;;;;;5012158;28;20048;-61
2022/09/22 04:51:25;;;;;;;2.33;1.38;;;19.90;62.30;;;;;;5012558;28;20521;-61
2022/09/22 04:53:50;;;;;;;1.95;1.17;;;19.90;62.30;;;;;;5012965;28;20164;-61
2022/09/22 04:56:16;;;;;;;2.42;1.13;;;19.80;62.20;;;;;;5012023;28;20133;-61
2022/09/22 04:58:41;;;;;;;2.00;1.10;;;19.90;62.30;;;;;;5013037;28;20038;-61
2022/09/22 05:01:08;;;;;;;1.98;1.10;;;19.80;62.20;;;;;;5012474;28;20041;-61
2022/09/22 05:03:36;;;;;;;2.55;1.30;;;19.90;62.30;;;;;;5012057;28;20050;-61
2022/09/22 05:06:04;;;;;;;3.33;1.13;;;19.80;62.20;;;;;;5012811;28;20046;-61
2022/09/22 05:08:29;;;;;;;2.85;1.23;;;19.80;62.20;;;;;;4995043;28;20135;-61
2022/09/22 05:10:55;;;;;;;1.92;1.10;;;19.80;62.20;;;;;;5011811;28;20093;-61
2022/09/22 05:13:21;;;;;;;2.05;1.25;;;19.80;62.20;;;;;;5012468;28;20049;-61
2022/09/22 05:15:46;;;;;;;3.17;1.13;;;19.80;62.20;;;;;;5012812;28;20038;-61
2022/09/22 05:18:12;;;;;;;3.00;1.50;;;19.80;62.20;;;;;;5011156;28;20042;-61
2022/09/22 05:20:38;;;;;;;2.22;1.13;;;19.80;62.20;;;;;;5012800;28;20542;-61
2022/09/22 05:23:05;;;;;;;2.53;1.23;;;19.80;62.20;;;;;;5012277;28;20490;-61
2022/09/22 05:25:31;;;;;;;2.67;1.30;;;19.80;62.20;;;;;;5012473;28;20132;-61
2022/09/22 05:27:57;;;;;;;3.80;1.40;;;19.80;62.20;;;;;;5012839;28;20066;-61
2022/09/22 05:30:24;;;;;;;1.88;1.02;;;19.80;62.20;;;;;;5011570;28;20474;-61
2022/09/22 05:32:50;;;;;;;2.45;1.35;;;19.80;62.20;;;;;;5010890;28;20054;-61
2022/09/22 05:35:17;;;;;;;3.05;1.20;;;19.80;62.20;;;;;;5011909;28;20056;-62
2022/09/22 05:37:43;;;;;;;2.05;1.30;;;19.80;62.20;;;;;;5011706;28;20042;-61
2022/09/22 05:40:12;;;;;;;3.53;1.20;;;19.70;62.10;;;;;;5012003;28;20046;-61
2022/09/22 05:42:45;;;;;;;2.50;1.20;;;19.70;62.10;;;;;;5012301;28;20468;-61
2022/09/22 05:45:11;;;;;;;1.92;1.08;;;19.70;62.10;;;;;;5011347;28;20073;-61
2022/09/22 05:47:36;;;;;;;2.67;1.25;;;19.80;62.20;;;;;;5012344;28;20080;-61
2022/09/22 05:50:02;;;;;;;1.45;0.95;;;19.80;62.10;;;;;;5012332;28;20092;-61
2022/09/22 05:52:28;;;;;;;2.50;1.40;;;19.70;62.00;;;;;;5010822;28;20533;-61
2022/09/22 05:54:53;;;;;;;2.60;1.05;;;19.70;62.00;;;;;;5011225;28;20089;-60
2022/09/22 05:57:24;;;;;;;2.10;1.27;;;19.70;62.00;;;;;;5011731;28;20136;-64
2022/09/22 05:59:50;;;;;;;3.10;1.20;;;19.80;62.60;;;;;;5011613;28;20053;-60
2022/09/22 06:02:15;;;;;;;2.17;1.08;;;19.80;62.00;;;;;;5011723;28;20490;-61
2022/09/22 06:04:41;;;;;;;2.92;1.20;;;19.80;62.00;;;;;;5012192;28;20089;-60
2022/09/22 06:07:06;;;;;;;1.55;0.90;;;19.80;62.00;;;;;;5010523;28;20053;-61
2022/09/22 06:09:32;;;;;;;2.97;1.20;;;19.80;62.00;;;;;;5012261;28;20038;-61
2022/09/22 06:11:58;;;;;;;3.92;1.10;;;19.80;62.10;;;;;;5012217;28;20053;-60
2022/09/22 06:14:23;;;;;;;4.45;1.00;;;19.80;62.20;;;;;;5011312;28;20381;-60
2022/09/22 06:16:49;;;;;;;5.60;1.20;;;19.80;62.20;;;;;;5011374;28;20153;-60
2022/09/22 06:19:18;;;;;;;1.60;0.98;;;19.90;62.30;;;;;;5011058;28;20046;-61
2022/09/22 06:21:44;;;;;;;3.83;1.63;;;19.80;62.30;;;;;;5011332;28;20045;-61
2022/09/22 06:24:10;;;;;;;6.13;1.60;;;19.90;62.30;;;;;;5013753;28;20096;-60
2022/09/22 06:26:36;;;;;;;4.20;1.42;;;19.90;62.40;;;;;;5014367;28;20093;-60
2022/09/22 06:29:01;;;;;;;6.70;1.35;;;19.90;62.40;;;;;;4997909;28;20042;-60
2022/09/22 06:31:27;;;;;;;3.97;1.55;;;19.90;62.50;;;;;;5015552;28;20117;-60
2022/09/22 06:33:53;;;;;;;1.90;0.98;;;19.90;62.50;;;;;;5014303;28;20046;-60
2022/09/22 06:36:30;;;;;;;2.97;1.48;;;19.90;62.60;;;;;;5015140;28;20049;-60
2022/09/22 06:38:57;;;;;;;6.15;2.13;;;20.00;62.60;;;;;;5015483;28;20091;-60
2022/09/22 06:41:26;;;;;;;4.00;1.35;;;20.00;62.70;;;;;;5014118;28;20054;-60
2022/09/22 06:43:55;;;;;;;5.72;1.80;;;20.00;62.90;;;;;;5015485;28;20046;-61
2022/09/22 06:46:25;;;;;;;4.18;1.80;;;20.00;62.90;;;;;;5014615;28;20050;-61
2022/09/22 06:48:56;;;;;;;3.72;1.73;;;20.00;62.90;;;;;;5014557;28;20056;-61
2022/09/22 06:51:29;;;;;;;5.68;1.80;;;20.10;63.00;;;;;;5014894;28;20084;-60
2022/09/22 06:53:55;;;;;;;4.10;1.70;;;20.00;62.90;;;;;;5015296;28;20056;-60
2022/09/22 06:56:23;;;;;;;4.50;1.75;;;20.10;63.00;;;;;;5014038;28;20042;-60
2022/09/22 06:58:52;;;;;;;4.53;2.03;;;20.10;63.00;;;;;;5014835;28;20486;-60
2022/09/22 07:01:18;;;;;;;3.05;1.60;;;20.10;63.00;;;;;;5014339;28;20379;-61
2022/09/22 07:03:45;;;;;;;4.78;1.80;;;20.10;63.00;;;;;;5013952;28;20057;-61
2022/09/22 07:06:16;;;;;;;3.47;1.80;;;20.10;63.00;;;;;;4997322;28;20045;-61
2022/09/22 07:08:42;;;;;;;6.50;1.83;;;20.20;63.10;;;;;;5014061;28;20077;-60
2022/09/22 07:11:10;;;;;;;3.58;1.80;;;20.20;63.10;;;;;;5013965;28;20093;-60
2022/09/22 07:13:38;;;;;;;5.00;1.80;;;20.20;63.20;;;;;;5014821;28;20041;-60
2022/09/22 07:16:06;;;;;;;3.60;1.90;;;20.20;63.20;;;;;;5014125;28;20048;-60
2022/09/22 07:18:32;;;;;;;4.63;2.00;;;20.20;63.20;;;;;;5022616;28;20124;-60
2022/09/22 07:21:19;;;;;;;2.70;1.60;;;20.30;63.20;;;;;;5019593;28;20141;-60
2022/09/22 07:23:51;;;;;;;3.67;2.15;;;20.20;63.20;;;;;;5013699;28;20116;-61
2022/09/22 07:26:18;;;;;;;5.55;2.03;;;20.30;63.20;;;;;;5014161;28;20042;-60
2022/09/22 07:28:50;;;;;;;3.73;1.73;;;20.30;63.30;;;;;;5019617;28;20045;-60
2022/09/22 07:31:16;;;;;;;4.15;1.85;;;20.30;63.30;;;;;;5023392;28;20069;-60
2022/09/22 07:33:42;;;;;;;4.47;2.03;;;20.30;63.30;;;;;;5022352;28;20397;-60
2022/09/22 07:36:12;;;;;;;3.63;2.00;;;20.30;63.30;;;;;;5014775;28;20045;-60
2022/09/22 07:38:41;;;;;;;4.00;1.60;;;20.30;63.30;;;;;;5033040;28;20053;-61
2022/09/22 07:41:12;;;;;;;3.85;2.00;;;20.30;63.30;;;;;;5033691;28;20117;-61
2022/09/22 07:43:38;;;;;;;3.80;1.80;;;20.30;63.40;;;;;;5033809;28;20045;-61
2022/09/22 07:46:04;;;;;;;3.45;1.98;;;20.40;63.40;;;;;;5033028;28;20536;-60
2022/09/22 07:48:35;;;;;;;3.92;2.13;;;20.40;63.40;;;;;;5015599;28;20041;-60
2022/09/22 07:51:09;;;;;;;3.65;1.90;;;20.40;63.40;;;;;;5032814;28;20049;-61
2022/09/22 07:53:36;;;;;;;4.22;1.95;;;20.40;63.40;;;;;;5033938;28;20052;-61
2022/09/22 07:56:05;;;;;;;3.22;1.83;;;20.40;63.40;;;;;;5033917;28;20550;-61
2022/09/22 07:58:32;;;;;;;5.05;2.13;;;20.40;63.40;;;;;;5032764;28;20053;-60
2022/09/22 08:01:05;;;;;;;3.90;2.05;;;20.40;63.40;;;;;;5033276;28;20045;-60
2022/09/22 08:03:30;;;;;;;3.83;1.60;;;20.40;63.40;;;;;;5033261;28;20080;-61
2022/09/22 08:06:06;;;;;;;3.35;1.90;;;20.50;63.50;;;;;;5031683;28;20139;-60
2022/09/22 08:08:33;;;;;;;5.43;2.00;;;20.50;63.40;;;;;;5033691;28;20046;-60
2022/09/22 08:11:06;;;;;;;3.88;1.77;;;20.50;63.50;;;;;;5033377;28;20042;-60
2022/09/22 08:13:33;;;;;;;3.40;1.80;;;20.50;63.50;;;;;;5032879;28;20056;-60
2022/09/22 08:16:03;;;;;;;4.20;1.65;;;20.50;63.50;;;;;;5033184;28;20490;-61
2022/09/22 08:18:29;;;;;;;3.47;1.70;;;20.50;63.60;;;;;;5032963;28;20042;-60
2022/09/22 08:20:55;;;;;;;4.97;1.60;;;20.60;63.70;;;;;;5032594;28;20052;-60
2022/09/22 08:23:21;;;;;;;4.38;1.85;;;20.60;63.70;;;;;;5033059;28;20041;-61
2022/09/22 08:25:49;;;;;;;3.70;1.92;;;20.60;63.60;;;;;;5033110;28;20089;-61
2022/09/22 08:28:14;;;;;;;4.88;1.70;;;20.60;63.60;;;;;;5032203;28;20049;-61
2022/09/22 08:30:46;;;;;;;3.90;1.48;;;20.70;63.50;;;;;;5033165;28;20053;-61
2022/09/22 08:33:12;;;;;;;3.10;1.60;;;20.70;63.40;;;;;;5013933;28;20046;-60
2022/09/22 08:35:38;;;;;;;3.85;1.52;;;20.70;63.40;;;;;;5033218;28;20048;-61
2022/09/22 08:38:04;;;;;;;4.57;2.00;;;20.70;63.40;;;;;;5015018;28;20049;-60
2022/09/22 08:40:30;;;;;;;4.82;1.90;;;20.70;63.50;;;;;;5031567;28;20060;-61
2022/09/22 08:42:58;;;;;;;4.35;1.60;;;20.70;63.60;;;;;;5033031;28;20084;-61
2022/09/22 08:45:30;;;;;;;4.85;1.80;;;20.70;63.60;;;;;;4982507;28;20050;-61
2022/09/22 08:53:51;;;;;;;3.70;1.60;;;20.70;63.70;;;;;;5004668;28;20049;-60
2022/09/22 08:56:29;;;;;;;3.15;1.50;;;20.70;63.70;;;;;;5014003;28;20405;-60
2022/09/22 08:59:17;;;;;;;3.17;1.42;;;20.80;63.80;;;;;;4999438;28;20042;-61
2022/09/22 09:02:01;;;;;;;8.50;1.60;;;20.80;63.90;;;;;;5024124;28;20088;-60
2022/09/22 09:04:35;;;;;;;4.65;1.65;;;20.80;63.80;;;;;;5032191;28;20064;-60
2022/09/22 09:07:30;;;;;;;3.25;1.60;;;20.80;63.60;;;;;;5015001;28;20057;-61
2022/09/22 09:10:33;;;;;;;4.53;1.50;;;20.80;63.60;;;;;;5017100;28;20042;-61
2022/09/22 09:13:18;;;;;;;4.55;1.70;;;20.90;63.50;;;;;;5032386;28;20103;-59
2022/09/22 09:16:19;;;;;;;6.25;1.45;;;20.90;63.50;;;;;;5031609;28;20041;-60
2022/09/22 09:18:48;;;;;;;4.65;1.52;;;20.90;63.70;;;;;;4955167;28;20169;-61
2022/09/22 09:21:14;;;;;;;4.45;1.40;;;20.90;63.90;;;;;;4991144;28;20061;-61
2022/09/22 09:23:44;;;;;;;3.40;1.55;;;20.90;63.90;;;;;;5031752;28;20060;-61
2022/09/22 09:26:10;;;;;;;3.60;1.50;;;21.00;64.00;;;;;;5031907;28;20512;-60
2022/09/22 09:28:56;;;;;;;5.13;1.70;;;20.90;63.90;;;;;;5029195;28;20046;-62
2022/09/22 09:31:38;;;;;;;6.35;1.67;;;21.00;63.90;;;;;;4998068;28;20073;-61
2022/09/22 09:34:12;;;;;;;5.93;1.50;;;21.00;64.00;;;;;;5014095;28;20144;-61
2022/09/22 09:36:41;;;;;;;4.13;1.45;;;21.00;63.90;;;;;;5031356;28;20052;-61
2022/09/22 09:39:29;;;;;;;4.10;1.98;;;21.00;63.90;;;;;;4998119;28;20172;-61
2022/09/22 09:41:55;;;;;;;3.38;1.42;;;21.00;63.80;;;;;;5015967;28;20045;-61
2022/09/22 09:44:27;;;;;;;3.72;1.50;;;21.00;63.80;;;;;;5030875;28;20052;-61
2022/09/22 09:46:59;;;;;;;5.82;1.77;;;21.00;63.80;;;;;;5031694;28;20519;-60
2022/09/22 09:49:24;;;;;;;3.22;1.40;;;21.00;63.80;;;;;;5023065;28;20121;-61
2022/09/22 09:51:57;;;;;;;4.72;2.00;;;21.00;63.80;;;;;;5013713;28;20124;-62
2022/09/22 09:54:24;;;;;;;4.78;1.80;;;21.00;63.80;;;;;;4997992;28;20092;-61
2022/09/22 09:57:05;;;;;;;4.45;1.58;;;21.00;63.80;;;;;;5031912;28;20116;-60
2022/09/22 10:02:19;;;;;;;4.00;1.55;;;21.00;63.80;;;;;;5023498;28;20037;-61
2022/09/22 10:05:17;;;;;;;4.10;1.55;;;21.00;63.70;;;;;;5022826;28;20047;-61
2022/09/22 10:07:47;;;;;;;3.63;1.33;;;21.10;63.90;;;;;;5009887;28;20485;-61
2022/09/22 10:10:22;;;;;;;5.22;1.65;;;21.00;63.80;;;;;;4980485;28;20042;-61
2022/09/22 10:12:51;;;;;;;4.03;1.75;;;21.10;63.70;;;;;;4981362;28;20046;-61
2022/09/22 10:15:24;;;;;;;3.47;1.38;;;21.10;63.50;;;;;;4997386;28;20058;-61
2022/09/22 10:17:50;;;;;;;5.15;1.48;;;21.10;63.30;;;;;;5014902;28;20091;-61
2022/09/22 10:20:21;;;;;;;3.13;1.48;;;21.10;63.30;;;;;;5014570;28;20054;-61
2022/09/22 10:22:47;;;;;;;4.38;1.98;;;21.10;63.30;;;;;;5015992;28;20049;-61
2022/09/22 10:25:24;;;;;;;4.53;1.38;;;21.10;63.20;;;;;;5015365;28;20054;-61
2022/09/22 10:28:14;;;;;;;7.32;2.60;;;21.10;63.20;;;;;;5015056;28;20037;-61
2022/09/22 10:30:45;;;;;;;6.68;1.92;;;21.10;63.30;;;;;;5015662;28;20477;-61
2022/09/22 10:33:13;;;;;;;6.93;2.33;;;21.20;63.30;;;;;;4997047;28;20056;-61
2022/09/22 10:35:43;;;;;;;6.60;2.03;;;21.10;63.20;;;;;;5015246;28;20084;-61
2022/09/22 10:38:17;;;;;;;9.00;2.95;;;21.20;63.40;;;;;;5015405;28;20042;-63
2022/09/22 10:40:45;;;;;;;7.20;2.33;;;21.20;63.50;;;;;;4997232;28;20046;-61
2022/09/22 10:43:35;;;;;;;5.85;2.10;;;21.20;63.50;;;;;;4997677;28;20061;-61
2022/09/22 10:46:19;;;;;;;8.02;2.60;;;21.20;63.50;;;;;;5015142;28;20506;-61
2022/09/22 10:49:03;;;;;;;10.50;2.50;;;21.20;63.40;;;;;;5014666;28;20049;-61
2022/09/22 10:51:32;;;;;;;9.18;2.20;;;21.20;63.40;;;;;;4998978;28;20046;-61
2022/09/22 10:54:07;;;;;;;8.43;2.30;;;21.20;63.50;;;;;;5014668;28;20046;-61
2022/09/22 10:56:37;;;;;;;10.43;2.92;;;21.20;63.70;;;;;;5014985;28;20564;-61
2022/09/22 10:59:17;;;;;;;10.70;2.92;;;21.20;63.50;;;;;;4997002;28;20046;-62
2022/09/22 11:01:49;;;;;;;11.02;3.13;;;21.20;63.40;;;;;;4996768;28;20050;-61
2022/09/22 11:04:33;;;;;;;8.73;3.13;;;21.20;63.60;;;;;;5014350;28;20089;-61
2022/09/22 11:13:25;;;;;;;11.75;2.90;;;21.20;63.70;;;;;;5000297;28;20054;-61
2022/09/22 11:16:19;;;;;;;9.35;3.63;;;21.20;63.80;;;;;;5013830;28;20058;-65
2022/09/22 11:19:08;;;;;;;15.73;3.47;;;21.20;63.80;;;;;;5013728;28;20053;-61
2022/09/22 11:21:58;;;;;;;11.63;3.42;;;21.20;63.80;;;;;;4997003;28;20073;-61
2022/09/22 11:24:46;;;;;;;12.10;3.60;;;21.20;63.80;;;;;;4997875;28;20117;-60
2022/09/22 11:27:42;;;;;;;11.23;3.28;;;21.20;63.80;;;;;;4982916;28;20050;-61
2022/09/22 11:30:19;;;;;;;8.27;2.97;;;21.20;63.80;;;;;;4982347;28;20478;-61
2022/09/22 11:32:57;;;;;;;9.63;2.95;;;21.20;63.80;;;;;;4993423;28;20069;-60
2022/09/22 11:36:02;;;;;;;7.78;3.15;;;21.20;63.80;;;;;;4994388;28;20150;-61
2022/09/22 11:39:06;;;;;;;10.27;3.00;;;21.20;64.00;;;;;;4988333;28;20518;-60
2022/09/22 11:44:28;;;;;;;10.68;2.67;;;21.20;63.80;;;;;;5232291;23;20423;-62
2022/09/22 11:47:24;;;;;;;9.88;3.35;;;21.10;63.60;;;;;;4991440;28;20057;-61
2022/09/22 11:50:19;;;;;;;10.95;2.53;;;21.20;63.60;;;;;;4993267;28;20053;-59
2022/09/22 11:52:53;;;;;;;6.43;2.53;;;21.20;63.60;;;;;;4966464;28;20409;-60
2022/09/22 11:55:47;;;;;;;6.10;2.70;;;21.20;63.60;;;;;;4993512;28;20073;-60
2022/09/22 11:58:17;;;;;;;7.18;2.35;;;21.20;63.60;;;;;;4959587;28;20125;-60
2022/09/22 12:01:32;;;;;;;10.00;2.88;;;21.10;63.50;;;;;;4992856;28;20045;-60
2022/09/22 12:04:21;;;;;;;7.75;2.55;;;21.20;63.60;;;;;;4914086;29;20042;-60
2022/09/22 12:06:49;;;;;;;8.88;2.50;;;21.20;63.60;;;;;;4898752;29;20052;-60
2022/09/22 12:09:33;;;;;;;9.65;2.88;;;21.20;63.60;;;;;;4938576;28;20472;-60
2022/09/22 12:11:59;;;;;;;7.50;2.60;;;21.20;63.70;;;;;;4992646;28;20054;-60
2022/09/22 12:14:26;;;;;;;7.70;2.75;;;21.20;63.60;;;;;;4975629;28;20047;-60
2022/09/22 12:17:22;;;;;;;11.65;3.15;;;21.20;63.60;;;;;;4992690;28;20049;-61
2022/09/22 12:20:04;;;;;;;6.40;2.40;;;21.20;63.50;;;;;;4975559;28;20129;-60
2022/09/22 12:22:55;;;;;;;6.40;2.65;;;21.20;63.60;;;;;;4991370;28;20053;-60
2022/09/22 12:25:46;;;;;;;7.20;2.00;;;21.20;63.60;;;;;;4992279;28;20089;-60
2022/09/22 12:28:31;;;;;;;6.95;2.00;;;21.30;63.60;;;;;;4992766;28;20457;-60
2022/09/22 12:31:12;;;;;;;7.47;2.15;;;21.30;63.50;;;;;;4993555;28;20034;-60
2022/09/22 12:33:49;;;;;;;7.22;1.85;;;21.30;63.50;;;;;;4990869;28;20512;-60
2022/09/22 12:36:16;;;;;;;6.93;2.35;;;21.30;63.40;;;;;;4990644;28;20568;-60
2022/09/22 12:38:42;;;;;;;8.15;2.13;;;21.30;63.40;;;;;;4991070;28;20404;-60
2022/09/22 12:41:09;;;;;;;5.97;1.95;;;21.30;63.40;;;;;;4990699;28;20046;-60
2022/09/22 12:43:34;;;;;;;6.55;1.95;;;21.30;63.30;;;;;;4975458;28;20069;-60
2022/09/22 12:46:03;;;;;;;5.97;1.80;;;21.30;63.30;;;;;;4992577;28;20080;-60
2022/09/22 12:48:33;;;;;;;4.35;2.00;;;21.40;63.40;;;;;;4975044;28;20477;-60
2022/09/22 12:51:24;;;;;;;8.13;2.05;;;21.40;64.00;;;;;;4992395;28;20055;-60
2022/09/22 12:53:50;;;;;;;5.00;2.40;;;21.40;63.40;;;;;;4980017;28;20034;-60
2022/09/22 12:56:45;;;;;;;3.95;1.73;;;21.40;63.40;;;;;;4992294;28;20057;-60
2022/09/22 12:59:36;;;;;;;6.45;2.60;;;21.40;63.30;;;;;;4982283;28;20039;-60
2022/09/22 13:02:12;;;;;;;6.03;1.95;;;21.40;63.30;;;;;;4992857;28;20054;-59
2022/09/22 13:04:38;;;;;;;6.32;1.80;;;21.40;63.20;;;;;;4993084;28;20509;-59
2022/09/22 13:07:27;;;;;;;6.13;2.05;;;21.50;63.20;;;;;;4991578;28;20410;-60
2022/09/22 13:10:38;;;;;;;4.78;1.67;;;21.50;63.10;;;;;;4991883;28;20047;-61
2022/09/22 13:13:08;;;;;;;4.45;1.90;;;21.40;63.10;;;;;;4981488;28;20058;-60
2022/09/22 13:15:48;;;;;;;5.05;1.55;;;21.40;63.10;;;;;;4992080;28;20077;-60
2022/09/22 13:18:32;;;;;;;5.85;2.13;;;21.40;63.00;;;;;;4992257;28;20046;-60
2022/09/22 13:20:58;;;;;;;6.50;1.70;;;21.40;63.00;;;;;;4978712;28;20038;-58
2022/09/22 13:23:25;;;;;;;5.30;1.42;;;21.40;63.00;;;;;;4990163;28;20061;-61
2022/09/22 13:25:50;;;;;;;7.53;1.50;;;21.40;63.10;;;;;;4976421;28;20383;-59
2022/09/22 13:28:20;;;;;;;6.72;2.13;;;21.50;63.00;;;;;;4971330;28;20049;-60
2022/09/22 13:31:02;;;;;;;3.90;1.67;;;21.50;62.80;;;;;;4983567;28;20077;-58